createdAt,value
2023-04-16T00:00:58.608Z,8.31
2023-04-16T00:04:04.510Z,8.34
2023-04-16T00:07:11.159Z,8.35
2023-04-16T00:10:19.953Z,8.33
2023-04-16T00:13:27.699Z,8.35
2023-04-16T00:16:33.591Z,8.36
2023-04-16T00:19:40.159Z,8.38
2023-04-16T00:22:45.825Z,8.39
2023-04-16T00:25:57.377Z,8.40
2023-04-16T00:29:04.436Z,8.37
2023-04-16T00:32:11.205Z,8.31
2023-04-16T00:35:16.811Z,8.20
2023-04-16T00:38:23.359Z,8.05
2023-04-16T00:41:31.557Z,8.00
2023-04-16T00:44:38.281Z,8.02
2023-04-16T00:47:44.024Z,8.01
2023-04-16T00:50:51.340Z,8.01
2023-04-16T00:53:57.421Z,8.02
2023-04-16T00:57:06.784Z,8.03
2023-04-16T01:00:14.629Z,7.94
2023-04-16T01:03:21.481Z,7.93
2023-04-16T01:06:27.203Z,7.96
2023-04-16T01:09:33.622Z,8.03
2023-04-16T01:12:41.864Z,8.00
2023-04-16T01:15:48.375Z,7.97
2023-04-16T01:18:54.017Z,7.92
2023-04-16T01:22:03.138Z,8.00
2023-04-16T01:25:09.744Z,7.96
2023-04-16T01:28:16.750Z,7.97
2023-04-16T01:31:22.470Z,7.94
2023-04-16T01:34:54.888Z,7.95
2023-04-16T01:38:03.240Z,7.95
2023-04-16T01:41:09.606Z,8.06
2023-04-16T01:44:15.320Z,8.08
2023-04-16T01:47:22.020Z,8.14
2023-04-16T01:50:27.962Z,8.15
2023-04-16T01:53:37.277Z,8.15
2023-04-16T01:56:43.813Z,8.16
2023-04-16T01:59:49.548Z,8.14
2023-04-16T02:02:57.419Z,8.13
2023-04-16T02:06:06.217Z,8.04
2023-04-16T02:09:15.237Z,7.95
2023-04-16T02:12:21.265Z,7.79
2023-04-16T02:15:27.939Z,7.82
2023-04-16T02:18:33.743Z,7.87
2023-04-16T02:21:40.162Z,7.94
2023-04-16T02:24:48.532Z,7.95
2023-04-16T02:27:55.222Z,7.88
2023-04-16T02:31:15.273Z,7.82
2023-04-16T02:34:24.346Z,7.84
2023-04-16T02:37:30.409Z,7.86
2023-04-16T02:40:39.691Z,7.88
2023-04-16T02:43:45.360Z,7.93
2023-04-16T02:46:51.745Z,8.00
2023-04-16T02:49:57.311Z,8.03
2023-04-16T02:53:04.563Z,7.97
2023-04-16T02:56:13.051Z,7.89
2023-04-16T02:59:19.469Z,7.77
2023-04-16T03:02:25.339Z,7.60
2023-04-16T03:05:32.301Z,7.46
2023-04-16T03:08:37.799Z,7.31
2023-04-16T03:11:46.833Z,7.19
2023-04-16T03:14:54.428Z,7.13
2023-04-16T03:18:01.332Z,6.99
2023-04-16T03:21:08.126Z,6.79
2023-04-16T03:24:17.012Z,6.66
2023-04-16T03:27:25.255Z,6.51
2023-04-16T03:30:32.431Z,6.36
2023-04-16T03:33:38.148Z,6.26
2023-04-16T03:36:44.917Z,6.20
2023-04-16T03:39:50.933Z,6.07
2023-04-16T03:42:59.911Z,5.90
2023-04-16T03:46:09.891Z,6.06
2023-04-16T03:49:16.957Z,6.16
2023-04-16T03:52:22.602Z,6.17
2023-04-16T03:55:29.087Z,6.15
2023-04-16T03:58:38.556Z,6.21
2023-04-16T04:01:45.178Z,6.29
2023-04-16T04:04:51.239Z,6.27
2023-04-16T04:07:57.831Z,6.25
2023-04-16T04:11:03.757Z,6.38
2023-04-16T04:14:14.195Z,6.43
2023-04-16T04:17:19.966Z,6.51
2023-04-16T04:20:26.864Z,6.58
2023-04-16T04:23:32.573Z,6.60
2023-04-16T04:26:39.087Z,6.70
2023-04-16T04:29:47.634Z,6.76
2023-04-16T04:32:54.062Z,6.81
2023-04-16T04:36:00.293Z,6.92
2023-04-16T04:39:07.727Z,7.06
2023-04-16T04:42:13.653Z,7.07
2023-04-16T04:45:25.687Z,6.84
2023-04-16T04:48:32.834Z,6.75
2023-04-16T04:51:39.589Z,6.75
2023-04-16T04:54:45.190Z,6.84
2023-04-16T04:57:52.158Z,7.01
2023-04-16T05:01:01.681Z,7.14
2023-04-16T05:04:08.624Z,7.33
2023-04-16T05:07:14.335Z,7.47
2023-04-16T05:10:20.850Z,7.54
2023-04-16T05:13:26.722Z,7.56
2023-04-16T05:16:35.981Z,7.49
2023-04-16T05:19:41.581Z,7.58
2023-04-16T05:22:47.962Z,7.68
2023-04-16T05:25:53.634Z,7.78
2023-04-16T05:29:00.185Z,7.80
2023-04-16T05:32:08.646Z,7.83
2023-04-16T05:35:17.301Z,7.91
2023-04-16T05:38:23.260Z,7.99
2023-04-16T05:41:29.730Z,8.07
2023-04-16T05:44:35.438Z,8.16
2023-04-16T05:47:44.523Z,8.22
2023-04-16T05:50:50.080Z,8.33
2023-04-16T05:53:58.973Z,8.51
2023-04-16T05:57:04.830Z,8.61
2023-04-16T06:00:12.730Z,8.77
2023-04-16T06:03:21.247Z,8.89
2023-04-16T06:06:29.703Z,9.01
2023-04-16T06:09:35.280Z,9.07
2023-04-16T06:12:41.879Z,9.27
2023-04-16T06:15:48.097Z,9.46
2023-04-16T06:18:57.078Z,9.69
2023-04-16T06:22:03.096Z,9.98
2023-04-16T06:25:11.172Z,10.22
2023-04-16T06:28:16.767Z,10.56
2023-04-16T06:31:23.386Z,10.87
2023-04-16T06:34:32.054Z,11.10
2023-04-16T06:37:38.673Z,11.24
2023-04-16T06:40:44.868Z,11.41
2023-04-16T06:43:51.445Z,11.63
2023-04-16T06:46:57.240Z,11.84
2023-04-16T06:50:06.376Z,12.17
2023-04-16T06:53:12.209Z,12.36
2023-04-16T06:56:18.765Z,12.67
2023-04-16T06:59:24.357Z,12.78
2023-04-16T07:02:31.097Z,12.78
2023-04-16T07:05:39.328Z,12.84
2023-04-16T07:08:46.109Z,13.16
2023-04-16T07:11:51.871Z,13.80
2023-04-16T07:14:58.338Z,14.21
2023-04-16T07:18:03.988Z,14.28
2023-04-16T07:21:13.089Z,14.45
2023-04-16T07:24:18.657Z,14.60
2023-04-16T07:27:25.623Z,14.64
2023-04-16T07:30:34.537Z,14.96
2023-04-16T07:33:43.531Z,15.34
2023-04-16T07:36:55.057Z,15.82
2023-04-16T07:40:03.125Z,16.28
2023-04-16T07:43:09.295Z,16.37
2023-04-16T07:46:16.422Z,16.54
2023-04-16T07:49:22.052Z,16.66
2023-04-16T07:52:32.368Z,16.43
2023-04-16T07:55:38.276Z,16.14
2023-04-16T07:58:45.356Z,15.96
2023-04-16T08:01:51.865Z,16.21
2023-04-16T08:05:03.384Z,16.73
2023-04-16T08:08:12.034Z,16.76
2023-04-16T08:11:21.808Z,16.71
2023-04-16T08:14:27.477Z,16.64
2023-04-16T08:17:34.788Z,17.06
2023-04-16T08:20:40.825Z,17.69
2023-04-16T08:23:50.241Z,17.76
2023-04-16T08:27:00.352Z,17.96
2023-04-16T08:30:12.007Z,18.57
2023-04-16T08:33:17.830Z,19.29
2023-04-16T08:36:24.400Z,19.68
2023-04-16T08:39:33.290Z,19.58
2023-04-16T08:42:48.575Z,19.35
2023-04-16T08:45:59.402Z,19.65
2023-04-16T08:49:10.158Z,19.94
2023-04-16T08:52:22.155Z,20.88
2023-04-16T08:55:40.518Z,21.86
2023-04-16T08:58:50.622Z,22.75
2023-04-16T09:02:02.131Z,22.97
2023-04-16T09:05:12.539Z,22.91
2023-04-16T09:08:21.494Z,23.44
2023-04-16T09:11:30.603Z,24.22
2023-04-16T09:14:38.480Z,24.77
2023-04-16T09:17:45.292Z,25.37
2023-04-16T09:20:53.659Z,25.98
2023-04-16T09:24:00.173Z,26.32
2023-04-16T09:27:11.422Z,26.87
2023-04-16T09:30:29.112Z,27.69
2023-04-16T09:33:35.613Z,28.21
2023-04-16T09:36:41.205Z,28.95
2023-04-16T09:39:49.022Z,29.83
2023-04-16T09:43:01.434Z,30.40
2023-04-16T09:46:08.723Z,31.02
2023-04-16T09:49:19.343Z,31.61
2023-04-16T09:52:30.412Z,31.63
2023-04-16T09:55:36.773Z,31.51
2023-04-16T09:58:46.275Z,31.08
2023-04-16T10:01:58.062Z,29.98
2023-04-16T10:05:23.177Z,28.56
2023-04-16T10:08:28.806Z,27.60
2023-04-16T10:11:35.604Z,27.36
2023-04-16T10:14:45.338Z,27.81
2023-04-16T10:17:54.074Z,28.50
2023-04-16T10:21:01.822Z,29.34
2023-04-16T10:24:10.969Z,30.15
2023-04-16T10:27:16.844Z,30.89
2023-04-16T10:30:26.787Z,31.85
2023-04-16T10:33:36.735Z,32.31
2023-04-16T10:36:43.328Z,32.84
2023-04-16T10:39:49.966Z,33.45
2023-04-16T10:43:01.739Z,33.30
2023-04-16T10:46:27.015Z,32.38
2023-04-16T10:49:33.726Z,31.54
2023-04-16T10:52:39.462Z,30.26
2023-04-16T10:56:00.918Z,29.60
2023-04-16T10:59:09.459Z,29.50
2023-04-16T11:02:24.191Z,29.06
2023-04-16T11:05:49.764Z,28.02
2023-04-16T11:08:57.259Z,27.05
2023-04-16T11:12:10.703Z,26.06
2023-04-16T11:15:19.875Z,25.17
2023-04-16T11:18:29.309Z,24.58
2023-04-16T11:21:37.276Z,24.05
2023-04-16T11:24:43.431Z,23.81
2023-04-16T11:27:49.880Z,23.76
2023-04-16T11:30:55.785Z,23.55
2023-04-16T11:34:04.998Z,23.49
2023-04-16T11:37:11.166Z,23.36
2023-04-16T11:40:18.015Z,23.14
2023-04-16T11:43:23.677Z,22.98
2023-04-16T11:46:42.768Z,22.69
2023-04-16T11:49:52.199Z,22.61
2023-04-16T11:53:07.178Z,22.57
2023-04-16T11:56:13.132Z,22.37
2023-04-16T11:59:23.262Z,22.07
2023-04-16T12:02:40.185Z,21.89
2023-04-16T12:05:49.772Z,21.86
2023-04-16T12:09:04.210Z,21.77
2023-04-16T12:12:31.575Z,21.86
2023-04-16T12:15:51.733Z,21.94
2023-04-16T12:19:06.670Z,21.91
2023-04-16T12:22:16.229Z,21.66
2023-04-16T12:25:23.359Z,21.35
2023-04-16T12:28:35.227Z,21.17
2023-04-16T12:31:43.605Z,21.26
2023-04-16T12:34:54.382Z,21.20
2023-04-16T12:38:04.374Z,21.21
2023-04-16T12:41:11.110Z,21.77
2023-04-16T12:44:21.978Z,22.21
2023-04-16T12:47:27.867Z,22.50
2023-04-16T12:50:34.714Z,22.64
2023-04-16T12:53:43.081Z,22.70
2023-04-16T12:56:49.642Z,22.67
2023-04-16T12:59:55.275Z,22.56
2023-04-16T13:03:01.899Z,22.28
2023-04-16T13:06:08.127Z,22.07
2023-04-16T13:09:18.417Z,22.43
2023-04-16T13:12:24.126Z,22.94
2023-04-16T13:15:30.701Z,23.65
2023-04-16T13:18:36.906Z,24.31
2023-04-16T13:25:05.281Z,25.69
2023-04-16T13:28:11.913Z,26.43
2023-04-16T13:31:20.790Z,27.24
2023-04-16T13:34:27.616Z,27.71
2023-04-16T13:37:33.237Z,28.05
2023-04-16T13:40:42.264Z,28.53
2023-04-16T13:43:47.887Z,28.71
2023-04-16T13:46:54.408Z,29.01
2023-04-16T13:50:00.012Z,29.03
2023-04-16T13:53:06.636Z,28.69
2023-04-16T13:56:15.540Z,28.24
2023-04-16T13:59:22.194Z,27.67
2023-04-16T14:02:28.517Z,26.77
2023-04-16T14:05:35.151Z,26.10
2023-04-16T14:08:41.075Z,25.50
2023-04-16T14:11:50.137Z,24.94
2023-04-16T14:14:57.256Z,24.38
2023-04-16T14:18:03.996Z,23.90
2023-04-16T14:21:09.737Z,23.51
2023-04-16T14:24:16.095Z,23.18
2023-04-16T14:27:27.614Z,23.02
2023-04-16T14:30:34.026Z,22.79
2023-04-16T14:33:39.892Z,22.54
2023-04-16T14:36:46.505Z,22.32
2023-04-16T14:39:54.253Z,22.19
2023-04-16T14:43:03.284Z,21.98
2023-04-16T14:46:09.284Z,21.87
2023-04-16T14:49:15.970Z,21.82
2023-04-16T14:52:21.799Z,21.67
2023-04-16T14:55:28.257Z,21.53
2023-04-16T14:58:37.842Z,21.32
2023-04-16T15:01:46.656Z,21.16
2023-04-16T15:04:52.365Z,21.02
2023-04-16T15:07:58.834Z,20.97
2023-04-16T15:11:04.507Z,20.72
2023-04-16T15:14:14.763Z,20.58
2023-04-16T15:17:20.632Z,20.54
2023-04-16T15:20:27.281Z,20.43
2023-04-16T15:23:32.883Z,20.60
2023-04-16T15:26:39.887Z,20.69
2023-04-16T15:29:49.798Z,20.67
2023-04-16T15:32:56.746Z,20.64
2023-04-16T15:36:02.663Z,20.53
2023-04-16T15:39:09.925Z,20.42
2023-04-16T15:42:16.008Z,20.37
2023-04-16T15:45:25.177Z,20.36
2023-04-16T15:48:31.061Z,20.21
2023-04-16T15:51:37.673Z,19.94
2023-04-16T15:54:43.928Z,19.90
2023-04-16T15:57:50.455Z,19.82
2023-04-16T16:00:58.765Z,19.72
2023-04-16T16:04:05.609Z,19.60
2023-04-16T16:07:11.518Z,19.52
2023-04-16T16:10:18.046Z,19.42
2023-04-16T16:13:23.690Z,19.35
2023-04-16T16:16:33.118Z,19.18
2023-04-16T16:19:38.894Z,18.93
2023-04-16T16:22:48.626Z,18.93
2023-04-16T16:25:55.696Z,18.92
2023-04-16T16:29:02.296Z,18.95
2023-04-16T16:32:11.008Z,18.92
2023-04-16T16:35:17.441Z,18.81
2023-04-16T16:38:23.159Z,18.71
2023-04-16T16:41:29.604Z,18.58
2023-04-16T16:44:35.202Z,18.43
2023-04-16T16:47:44.446Z,18.32
2023-04-16T16:50:50.247Z,18.21
2023-04-16T16:53:57.036Z,18.00
2023-04-16T16:57:02.615Z,17.86
2023-04-16T17:00:14.501Z,17.83
2023-04-16T17:03:22.893Z,17.87
2023-04-16T17:06:29.762Z,17.82
2023-04-16T17:09:38.830Z,17.64
2023-04-16T17:12:47.309Z,17.55
2023-04-16T17:15:52.892Z,17.45
2023-04-16T17:19:02.056Z,17.40
2023-04-16T17:22:07.652Z,17.28
2023-04-16T17:25:15.182Z,17.18
2023-04-16T17:28:21.103Z,17.11
2023-04-16T17:31:29.921Z,16.95
2023-04-16T17:34:38.339Z,16.78
2023-04-16T17:37:44.797Z,16.64
2023-04-16T17:40:50.584Z,16.51
2023-04-16T17:43:57.059Z,16.32
2023-04-16T17:47:02.794Z,16.17
2023-04-16T17:50:13.705Z,16.06
2023-04-16T17:53:19.321Z,16.00
2023-04-16T17:56:25.778Z,15.92
2023-04-16T17:59:31.451Z,15.84
2023-04-16T18:02:39.487Z,15.74
2023-04-16T18:05:47.813Z,15.63
2023-04-16T18:08:54.268Z,15.51
2023-04-16T18:12:03.471Z,15.44
2023-04-16T18:15:12.062Z,15.33
2023-04-16T18:18:17.664Z,15.24
2023-04-16T18:21:27.690Z,15.12
2023-04-16T18:24:35.525Z,15.06
2023-04-16T18:27:41.985Z,14.98
2023-04-16T18:30:47.580Z,14.88
2023-04-16T18:33:57.898Z,14.74
2023-04-16T18:37:07.207Z,14.68
2023-04-16T18:40:15.653Z,14.60
2023-04-16T18:43:21.382Z,14.36
2023-04-16T18:46:28.094Z,14.21
2023-04-16T18:49:33.882Z,14.16
2023-04-16T18:52:43.643Z,14.20
2023-04-16T18:55:49.264Z,14.21
2023-04-16T18:58:55.714Z,14.08
2023-04-16T19:02:01.431Z,14.04
2023-04-16T19:05:09.192Z,13.99
2023-04-16T19:08:17.354Z,13.90
2023-04-16T19:11:23.982Z,13.85
2023-04-16T19:14:29.601Z,13.79
2023-04-16T19:17:36.162Z,13.75
2023-04-16T19:20:42.353Z,13.72
2023-04-16T19:23:51.726Z,13.70
2023-04-16T19:26:57.505Z,13.67
2023-04-16T19:30:06.550Z,13.57
2023-04-16T19:33:12.246Z,13.54
2023-04-16T19:36:18.874Z,13.47
2023-04-16T19:39:29.624Z,13.43
2023-04-16T19:42:37.005Z,13.37
2023-04-16T19:45:46.827Z,13.27
2023-04-16T19:48:53.399Z,13.21
2023-04-16T19:51:59.943Z,13.15
2023-04-16T19:55:10.970Z,13.08
2023-04-16T19:58:16.967Z,13.04
2023-04-16T20:01:23.564Z,13.03
2023-04-16T20:04:29.487Z,13.01
2023-04-16T20:07:36.356Z,13.03
2023-04-16T20:10:44.758Z,13.05
2023-04-16T20:13:51.378Z,13.05
2023-04-16T20:16:57.655Z,13.00
2023-04-16T20:20:10.098Z,13.02
2023-04-16T20:23:16.005Z,13.00
2023-04-16T20:26:28.413Z,12.90
2023-04-16T20:29:34.208Z,12.88
2023-04-16T20:32:40.736Z,12.73
2023-04-16T20:35:46.410Z,12.60
2023-04-16T20:38:54.104Z,12.52
2023-04-16T20:42:04.502Z,12.47
2023-04-16T20:45:12.999Z,12.50
2023-04-16T20:48:18.615Z,12.52
2023-04-16T20:51:25.082Z,12.42
2023-04-16T20:54:31.231Z,12.40
2023-04-16T20:57:40.181Z,12.43
2023-04-16T21:00:45.897Z,12.43
2023-04-16T21:03:52.522Z,12.33
2023-04-16T21:06:58.444Z,12.30
2023-04-16T21:10:05.350Z,12.20
2023-04-16T21:13:13.904Z,12.16
2023-04-16T21:16:20.408Z,12.16
2023-04-16T21:19:27.399Z,12.15
2023-04-16T21:22:33.748Z,12.11
2023-04-16T21:25:39.259Z,12.03
2023-04-16T21:28:48.458Z,12.00
2023-04-16T21:31:54.180Z,11.97
2023-04-16T21:35:00.996Z,11.92
2023-04-16T21:38:06.813Z,11.84
2023-04-16T21:41:13.230Z,11.80
2023-04-16T21:44:21.378Z,11.74
2023-04-16T21:47:27.728Z,11.63
2023-04-16T21:50:33.366Z,11.33
2023-04-16T21:53:40.079Z,11.21
2023-04-16T21:56:46.434Z,11.16
2023-04-16T21:59:55.368Z,11.25
2023-04-16T22:03:01.189Z,11.20
2023-04-16T22:06:08.763Z,11.23
2023-04-16T22:09:14.321Z,11.19
2023-04-16T22:12:20.756Z,11.20
2023-04-16T22:15:29.236Z,11.00
2023-04-16T22:18:35.761Z,10.88
2023-04-16T22:21:41.586Z,10.80
2023-04-16T22:24:48.003Z,10.76
2023-04-16T22:27:53.899Z,10.83
2023-04-16T22:31:03.276Z,10.88
2023-04-16T22:34:12.218Z,10.91
2023-04-16T22:37:18.898Z,10.92
2023-04-16T22:40:24.532Z,10.92
2023-04-16T22:43:30.965Z,10.94
2023-04-16T22:46:39.178Z,10.96
2023-04-16T22:49:45.614Z,10.94
2023-04-16T22:52:51.405Z,10.95
2023-04-16T22:55:57.969Z,10.99
2023-04-16T22:59:03.587Z,10.95
2023-04-16T23:02:12.757Z,10.89
2023-04-16T23:05:18.450Z,10.83
2023-04-16T23:08:27.175Z,10.80
2023-04-16T23:11:32.709Z,10.75
2023-04-16T23:14:39.882Z,10.75
2023-04-16T23:17:48.705Z,10.64
2023-04-16T23:20:56.979Z,10.68
2023-04-16T23:24:03.625Z,10.71
2023-04-16T23:27:10.087Z,10.74
2023-04-16T23:30:16.765Z,10.70
2023-04-16T23:33:25.839Z,10.62
2023-04-16T23:36:31.690Z,10.55
2023-04-16T23:39:38.083Z,10.45
2023-04-16T23:42:43.741Z,10.45
2023-04-16T23:45:50.181Z,10.40
2023-04-16T23:48:58.414Z,10.37
2023-04-16T23:52:05.807Z,10.43
2023-04-16T23:55:12.232Z,10.45
2023-04-16T23:58:18.814Z,10.58
